RUC1370 SVMI-SVSA
Flight info
| Callsign | RUC1370 |
|---|---|
| Flight time | 1h 2m |
| Altitude | 24000 |
| Route | MARES1 MARES A315 ATONO G427 PBL/N0460F360 UW40 BRM UW8 LFA LFA1B |
| Aircraft | B737/M-SDE2E3FGHIRWXY/LB1 |
Departure
| Time | 2026-04-19 19:14 |
|---|---|
| Airport | Maiquetía Simón Bolívar International Airport (SVMI) |
Arrival
| Time | 2026-04-19 20:16 |
|---|---|
| Airport | Juan Vicente Gómez International Airport (SVSA) |
| Time | Latitude | Longitude | Altitude | Speed | Heading |
|---|---|---|---|---|---|
| 2026-04-19 18:20 | 10.59832 | -67.00077 | 220 ft | 0 kts | 178° |
| 2026-04-19 19:05 | 10.59841 | -67.00077 | 220 ft | 3 kts | 178° |
| 2026-04-19 19:06 | 10.59862 | -67.00078 | 220 ft | 3 kts | 177° |
| 2026-04-19 19:06 | 10.59882 | -67.00079 | 220 ft | 3 kts | 183° |
| 2026-04-19 19:06 | 10.59901 | -67.00076 | 220 ft | 3 kts | 211° |
| 2026-04-19 19:06 | 10.59910 | -67.00067 | 220 ft | 1 kts | 269° |
| 2026-04-19 19:07 | 10.59910 | -67.00074 | 220 ft | 0 kts | 271° |
| 2026-04-19 19:09 | 10.59909 | -67.00090 | 220 ft | 7 kts | 269° |
| 2026-04-19 19:10 | 10.59906 | -67.00169 | 222 ft | 12 kts | 268° |
| 2026-04-19 19:10 | 10.59915 | -67.00253 | 223 ft | 12 kts | 289° |
| 2026-04-19 19:10 | 10.59982 | -67.00299 | 224 ft | 14 kts | 346° |
| 2026-04-19 19:10 | 10.60059 | -67.00297 | 223 ft | 13 kts | 2° |
| 2026-04-19 19:11 | 10.60114 | -67.00225 | 223 ft | 16 kts | 88° |
| 2026-04-19 19:11 | 10.60118 | -67.00110 | 220 ft | 16 kts | 88° |
| 2026-04-19 19:11 | 10.60121 | -67.00000 | 218 ft | 15 kts | 88° |
| 2026-04-19 19:11 | 10.60131 | -66.99894 | 217 ft | 15 kts | 81° |
| 2026-04-19 19:12 | 10.60138 | -66.99789 | 222 ft | 15 kts | 88° |
| 2026-04-19 19:12 | 10.60129 | -66.99680 | 210 ft | 16 kts | 125° |
| 2026-04-19 19:12 | 10.60030 | -66.99664 | 220 ft | 7 kts | 179° |
| 2026-04-19 19:12 | 10.59985 | -66.99662 | 217 ft | 6 kts | 178° |
| 2026-04-19 19:13 | 10.59981 | -66.99662 | 217 ft | 0 kts | 178° |
| 2026-04-19 19:13 | 10.59961 | -66.99662 | 220 ft | 13 kts | 179° |
| 2026-04-19 19:13 | 10.59929 | -66.99534 | 211 ft | 43 kts | 76° |
| 2026-04-19 19:13 | 10.60062 | -66.98987 | 185 ft | 116 kts | 76° |
| 2026-04-19 19:14 | 10.60311 | -66.97999 | 166 ft | 171 kts | 76° |
| 2026-04-19 19:14 | 10.60615 | -66.96763 | 718 ft | 183 kts | 76° |
| 2026-04-19 19:14 | 10.60886 | -66.95507 | 1639 ft | 176 kts | 79° |
| 2026-04-19 19:14 | 10.61116 | -66.94297 | 2485 ft | 180 kts | 79° |
| 2026-04-19 19:15 | 10.61373 | -66.92939 | 2808 ft | 211 kts | 79° |
| 2026-04-19 19:15 | 10.61845 | -66.91432 | 3061 ft | 240 kts | 54° |
| 2026-04-19 19:15 | 10.63224 | -66.90403 | 3457 ft | 264 kts | 16° |
| 2026-04-19 19:15 | 10.65091 | -66.90231 | 4287 ft | 271 kts | 2° |
| 2026-04-19 19:16 | 10.66962 | -66.90197 | 5189 ft | 274 kts | 1° |
| 2026-04-19 19:16 | 10.68884 | -66.90168 | 6089 ft | 278 kts | 1° |
| 2026-04-19 19:16 | 10.70831 | -66.90118 | 6943 ft | 282 kts | 2° |
| 2026-04-19 19:16 | 10.72814 | -66.90051 | 7804 ft | 286 kts | 2° |
| 2026-04-19 19:17 | 10.74829 | -66.89977 | 8630 ft | 291 kts | 2° |
| 2026-04-19 19:17 | 10.76872 | -66.89900 | 9457 ft | 295 kts | 2° |
| 2026-04-19 19:17 | 10.78931 | -66.89820 | 10286 ft | 299 kts | 2° |
| 2026-04-19 19:17 | 10.81015 | -66.90101 | 11020 ft | 302 kts | 338° |
| 2026-04-19 19:18 | 10.82753 | -66.91181 | 12342 ft | 288 kts | 317° |
| 2026-04-19 19:18 | 10.83884 | -66.92829 | 13362 ft | 287 kts | 292° |
| 2026-04-19 19:18 | 10.84267 | -66.94824 | 14193 ft | 291 kts | 274° |
| 2026-04-19 19:18 | 10.84292 | -66.96869 | 15022 ft | 293 kts | 271° |
| 2026-04-19 19:19 | 10.84260 | -66.98940 | 15886 ft | 293 kts | 270° |
| 2026-04-19 19:19 | 10.84222 | -67.01023 | 16693 ft | 296 kts | 270° |
| 2026-04-19 19:19 | 10.84192 | -67.03123 | 17448 ft | 299 kts | 270° |
| 2026-04-19 19:20 | 10.84153 | -67.07395 | 18912 ft | 305 kts | 271° |
| 2026-04-19 19:20 | 10.84135 | -67.09565 | 19622 ft | 307 kts | 268° |
| 2026-04-19 19:20 | 10.83682 | -67.11703 | 20299 ft | 314 kts | 250° |
| 2026-04-19 19:20 | 10.82773 | -67.13737 | 20997 ft | 317 kts | 246° |
| 2026-04-19 19:21 | 10.81781 | -67.15749 | 21665 ft | 320 kts | 245° |
| 2026-04-19 19:21 | 10.80758 | -67.17777 | 22270 ft | 324 kts | 245° |
| 2026-04-19 19:21 | 10.79723 | -67.19823 | 22905 ft | 326 kts | 245° |
| 2026-04-19 19:21 | 10.78686 | -67.21883 | 23561 ft | 328 kts | 245° |
| 2026-04-19 19:22 | 10.77659 | -67.23934 | 24163 ft | 331 kts | 245° |
| 2026-04-19 19:22 | 10.76615 | -67.26031 | 24761 ft | 333 kts | 245° |
| 2026-04-19 19:22 | 10.75567 | -67.28144 | 25405 ft | 334 kts | 245° |
| 2026-04-19 19:22 | 10.74524 | -67.30252 | 26050 ft | 334 kts | 245° |
| 2026-04-19 19:23 | 10.73479 | -67.32366 | 26671 ft | 335 kts | 244° |
| 2026-04-19 19:23 | 10.72430 | -67.34490 | 27265 ft | 336 kts | 244° |
| 2026-04-19 19:23 | 10.71379 | -67.36619 | 27837 ft | 337 kts | 244° |
| 2026-04-19 19:23 | 10.70326 | -67.38753 | 28395 ft | 338 kts | 243° |
| 2026-04-19 19:24 | 10.69279 | -67.40874 | 28938 ft | 339 kts | 243° |
| 2026-04-19 19:24 | 10.68221 | -67.43017 | 29488 ft | 340 kts | 243° |
| 2026-04-19 19:24 | 10.67153 | -67.45181 | 29966 ft | 343 kts | 243° |
| 2026-04-19 19:24 | 10.66066 | -67.47380 | 29955 ft | 354 kts | 243° |
| 2026-04-19 19:25 | 10.64943 | -67.49655 | 29990 ft | 365 kts | 243° |
| 2026-04-19 19:25 | 10.62598 | -67.54400 | 30002 ft | 385 kts | 243° |
| 2026-04-19 19:26 | 10.60155 | -67.59346 | 30002 ft | 402 kts | 243° |
| 2026-04-19 19:26 | 10.57601 | -67.64514 | 30011 ft | 415 kts | 243° |
| 2026-04-19 19:27 | 10.54972 | -67.69832 | 30001 ft | 426 kts | 243° |
| 2026-04-19 19:27 | 10.52290 | -67.75248 | 30001 ft | 433 kts | 243° |
| 2026-04-19 19:28 | 10.49562 | -67.80760 | 30002 ft | 439 kts | 243° |
| 2026-04-19 19:28 | 10.47270 | -67.85389 | 30013 ft | 443 kts | 243° |
| 2026-04-19 19:29 | 10.44371 | -67.91237 | 30018 ft | 446 kts | 243° |
| 2026-04-19 19:29 | 10.41586 | -67.96855 | 29990 ft | 449 kts | 243° |
| 2026-04-19 19:30 | 10.38775 | -68.02521 | 30028 ft | 450 kts | 243° |
| 2026-04-19 19:30 | 10.35954 | -68.08205 | 30019 ft | 450 kts | 243° |
| 2026-04-19 19:31 | 10.33611 | -68.12921 | 29996 ft | 449 kts | 243° |
| 2026-04-19 19:31 | 10.30797 | -68.18582 | 30017 ft | 448 kts | 243° |
| 2026-04-19 19:32 | 10.27988 | -68.24237 | 30013 ft | 448 kts | 243° |
| 2026-04-19 19:32 | 10.25177 | -68.29889 | 30002 ft | 448 kts | 243° |
| 2026-04-19 19:33 | 10.22384 | -68.35500 | 30018 ft | 447 kts | 243° |
| 2026-04-19 19:33 | 10.19579 | -68.41136 | 30012 ft | 447 kts | 243° |
| 2026-04-19 19:34 | 10.16767 | -68.46780 | 30015 ft | 448 kts | 243° |
| 2026-04-19 19:34 | 10.13956 | -68.52423 | 30012 ft | 448 kts | 243° |
| 2026-04-19 19:35 | 10.11144 | -68.58062 | 30013 ft | 448 kts | 243° |
| 2026-04-19 19:35 | 10.08324 | -68.63712 | 29998 ft | 449 kts | 243° |
| 2026-04-19 19:36 | 10.05502 | -68.69365 | 29991 ft | 449 kts | 243° |
| 2026-04-19 19:36 | 10.02692 | -68.74992 | 29994 ft | 450 kts | 243° |
| 2026-04-19 19:37 | 9.99862 | -68.80652 | 30001 ft | 450 kts | 243° |
| 2026-04-19 19:37 | 9.97030 | -68.86318 | 29995 ft | 451 kts | 243° |
| 2026-04-19 19:38 | 9.94811 | -68.90753 | 29994 ft | 452 kts | 243° |
| 2026-04-19 19:38 | 9.92188 | -68.95994 | 29990 ft | 453 kts | 243° |
| 2026-04-19 19:39 | 9.89333 | -69.01698 | 29992 ft | 453 kts | 243° |
| 2026-04-19 19:39 | 9.86472 | -69.07411 | 29989 ft | 454 kts | 243° |
| 2026-04-19 19:40 | 9.83629 | -69.13084 | 29991 ft | 455 kts | 243° |
| 2026-04-19 19:40 | 9.80764 | -69.18797 | 29988 ft | 455 kts | 243° |
| 2026-04-19 19:41 | 9.77895 | -69.24518 | 29993 ft | 455 kts | 243° |
| 2026-04-19 19:41 | 9.75024 | -69.30238 | 29990 ft | 456 kts | 243° |
| 2026-04-19 19:42 | 9.72147 | -69.35966 | 29980 ft | 456 kts | 243° |
| 2026-04-19 19:42 | 9.69261 | -69.41708 | 29991 ft | 456 kts | 243° |
| 2026-04-19 19:43 | 9.66375 | -69.47451 | 29990 ft | 457 kts | 243° |
| 2026-04-19 19:43 | 9.63504 | -69.53161 | 29990 ft | 456 kts | 243° |
| 2026-04-19 19:44 | 9.60624 | -69.58885 | 29986 ft | 456 kts | 243° |
| 2026-04-19 19:44 | 9.57743 | -69.64608 | 29975 ft | 455 kts | 243° |
| 2026-04-19 19:45 | 9.54860 | -69.70329 | 29991 ft | 455 kts | 243° |
| 2026-04-19 19:45 | 9.51975 | -69.76052 | 29981 ft | 456 kts | 243° |
| 2026-04-19 19:46 | 9.49090 | -69.81775 | 29976 ft | 456 kts | 243° |
| 2026-04-19 19:46 | 9.46203 | -69.87500 | 29977 ft | 457 kts | 243° |
| 2026-04-19 19:47 | 9.43309 | -69.93235 | 29969 ft | 457 kts | 243° |
| 2026-04-19 19:47 | 9.40432 | -69.98934 | 29964 ft | 457 kts | 243° |
| 2026-04-19 19:48 | 9.37526 | -70.04684 | 29950 ft | 457 kts | 243° |
| 2026-04-19 19:48 | 9.34628 | -70.10420 | 29959 ft | 458 kts | 243° |
| 2026-04-19 19:49 | 9.31720 | -70.16171 | 29954 ft | 459 kts | 243° |
| 2026-04-19 19:49 | 9.28813 | -70.21919 | 29944 ft | 459 kts | 243° |
| 2026-04-19 19:50 | 9.25901 | -70.27671 | 29949 ft | 458 kts | 243° |
| 2026-04-19 19:50 | 9.23013 | -70.33376 | 29950 ft | 458 kts | 243° |
| 2026-04-19 19:51 | 9.20101 | -70.39120 | 29945 ft | 459 kts | 243° |
| 2026-04-19 19:51 | 9.17190 | -70.44864 | 29923 ft | 458 kts | 243° |
| 2026-04-19 19:52 | 9.14279 | -70.50607 | 29948 ft | 458 kts | 243° |
| 2026-04-19 19:52 | 9.11370 | -70.56342 | 29927 ft | 458 kts | 243° |
| 2026-04-19 19:53 | 9.08472 | -70.62048 | 29926 ft | 459 kts | 243° |
| 2026-04-19 19:53 | 9.05547 | -70.67805 | 29935 ft | 460 kts | 243° |
| 2026-04-19 19:54 | 9.02624 | -70.73559 | 29916 ft | 460 kts | 243° |
| 2026-04-19 19:54 | 8.99697 | -70.79320 | 29918 ft | 461 kts | 243° |
| 2026-04-19 19:55 | 8.96766 | -70.85085 | 29924 ft | 461 kts | 243° |
| 2026-04-19 19:55 | 8.93836 | -70.90840 | 29921 ft | 460 kts | 243° |
| 2026-04-19 19:56 | 8.90901 | -70.96607 | 29921 ft | 461 kts | 243° |
| 2026-04-19 19:56 | 8.87983 | -71.02338 | 29924 ft | 461 kts | 243° |
| 2026-04-19 19:57 | 8.85041 | -71.08110 | 29927 ft | 460 kts | 243° |
| 2026-04-19 19:57 | 8.82107 | -71.13869 | 29925 ft | 461 kts | 243° |
| 2026-04-19 19:58 | 8.79169 | -71.19635 | 29915 ft | 461 kts | 243° |
| 2026-04-19 19:58 | 8.76226 | -71.25399 | 29914 ft | 461 kts | 243° |
| 2026-04-19 19:59 | 8.73301 | -71.31129 | 29914 ft | 462 kts | 243° |
| 2026-04-19 19:59 | 8.70354 | -71.36900 | 29912 ft | 463 kts | 243° |
| 2026-04-19 20:00 | 8.67402 | -71.42681 | 29911 ft | 463 kts | 243° |
| 2026-04-19 20:00 | 8.64443 | -71.48470 | 29918 ft | 463 kts | 243° |
| 2026-04-19 20:00 | 8.62964 | -71.51362 | 29815 ft | 464 kts | 243° |
| 2026-04-19 20:01 | 8.61457 | -71.54308 | 28684 ft | 474 kts | 243° |
| 2026-04-19 20:01 | 8.59943 | -71.57268 | 27619 ft | 473 kts | 243° |
| 2026-04-19 20:01 | 8.58456 | -71.60174 | 26721 ft | 469 kts | 243° |
| 2026-04-19 20:01 | 8.56968 | -71.63081 | 25880 ft | 463 kts | 243° |
| 2026-04-19 20:02 | 8.55496 | -71.65955 | 25036 ft | 458 kts | 243° |
| 2026-04-19 20:02 | 8.54041 | -71.68799 | 24193 ft | 453 kts | 243° |
| 2026-04-19 20:02 | 8.52595 | -71.71622 | 23344 ft | 449 kts | 243° |
| 2026-04-19 20:02 | 8.51166 | -71.74412 | 22504 ft | 445 kts | 243° |
| 2026-04-19 20:03 | 8.49751 | -71.77177 | 21658 ft | 441 kts | 243° |
| 2026-04-19 20:03 | 8.48350 | -71.79910 | 20822 ft | 437 kts | 243° |
| 2026-04-19 20:03 | 8.46956 | -71.82629 | 20055 ft | 432 kts | 243° |
| 2026-04-19 20:03 | 8.45593 | -71.85289 | 19819 ft | 420 kts | 243° |
| 2026-04-19 20:04 | 8.44270 | -71.87868 | 19678 ft | 406 kts | 243° |
| 2026-04-19 20:04 | 8.42998 | -71.90347 | 19541 ft | 389 kts | 243° |
| 2026-04-19 20:04 | 8.41783 | -71.92713 | 19516 ft | 371 kts | 243° |
| 2026-04-19 20:04 | 8.40621 | -71.94978 | 19494 ft | 354 kts | 244° |
| 2026-04-19 20:05 | 8.39516 | -71.97130 | 19498 ft | 337 kts | 244° |
| 2026-04-19 20:05 | 8.38478 | -71.99154 | 19507 ft | 322 kts | 244° |
| 2026-04-19 20:05 | 8.37458 | -72.01142 | 19136 ft | 318 kts | 244° |
| 2026-04-19 20:05 | 8.36422 | -72.03164 | 18021 ft | 332 kts | 244° |
| 2026-04-19 20:06 | 8.35340 | -72.05276 | 16859 ft | 345 kts | 244° |
| 2026-04-19 20:06 | 8.34222 | -72.07455 | 15717 ft | 354 kts | 244° |
| 2026-04-19 20:06 | 8.33076 | -72.09686 | 14583 ft | 359 kts | 244° |
| 2026-04-19 20:06 | 8.31920 | -72.11937 | 13441 ft | 363 kts | 243° |
| 2026-04-19 20:07 | 8.30758 | -72.14198 | 12341 ft | 364 kts | 243° |
| 2026-04-19 20:07 | 8.29593 | -72.16463 | 11504 ft | 358 kts | 243° |
| 2026-04-19 20:07 | 8.28475 | -72.18637 | 11164 ft | 338 kts | 243° |
| 2026-04-19 20:07 | 8.27428 | -72.20676 | 10981 ft | 316 kts | 243° |
| 2026-04-19 20:08 | 8.26440 | -72.22598 | 10665 ft | 302 kts | 243° |
| 2026-04-19 20:08 | 8.25489 | -72.24448 | 10362 ft | 290 kts | 243° |
| 2026-04-19 20:08 | 8.24569 | -72.26233 | 9944 ft | 283 kts | 242° |
| 2026-04-19 20:08 | 8.23376 | -72.27767 | 9366 ft | 283 kts | 222° |
| 2026-04-19 20:09 | 8.21863 | -72.29029 | 8825 ft | 282 kts | 219° |
| 2026-04-19 20:09 | 8.20339 | -72.30260 | 8342 ft | 279 kts | 219° |
| 2026-04-19 20:09 | 8.18841 | -72.31476 | 7941 ft | 272 kts | 219° |
| 2026-04-19 20:09 | 8.17393 | -72.32664 | 7590 ft | 264 kts | 219° |
| 2026-04-19 20:10 | 8.15986 | -72.33829 | 7242 ft | 258 kts | 220° |
| 2026-04-19 20:10 | 8.14615 | -72.34969 | 6914 ft | 254 kts | 220° |
| 2026-04-19 20:10 | 8.13238 | -72.36116 | 6610 ft | 260 kts | 220° |
| 2026-04-19 20:10 | 8.11809 | -72.37305 | 6293 ft | 271 kts | 220° |
| 2026-04-19 20:11 | 8.10363 | -72.38540 | 5902 ft | 273 kts | 221° |
| 2026-04-19 20:11 | 8.08947 | -72.39774 | 5558 ft | 272 kts | 221° |
| 2026-04-19 20:11 | 8.07519 | -72.41026 | 5234 ft | 271 kts | 221° |
| 2026-04-19 20:11 | 8.06121 | -72.42245 | 5114 ft | 260 kts | 221° |
| 2026-04-19 20:12 | 8.04775 | -72.43417 | 4987 ft | 251 kts | 221° |
| 2026-04-19 20:12 | 8.03478 | -72.44547 | 4863 ft | 242 kts | 221° |
| 2026-04-19 20:12 | 8.02225 | -72.45636 | 4795 ft | 233 kts | 220° |
| 2026-04-19 20:12 | 8.01009 | -72.46695 | 4599 ft | 229 kts | 220° |
| 2026-04-19 20:13 | 7.99755 | -72.47653 | 4352 ft | 224 kts | 205° |
| 2026-04-19 20:13 | 7.98253 | -72.47911 | 4073 ft | 218 kts | 175° |
| 2026-04-19 20:13 | 7.96790 | -72.47607 | 3793 ft | 212 kts | 165° |
| 2026-04-19 20:13 | 7.95484 | -72.47232 | 3498 ft | 208 kts | 164° |
| 2026-04-19 20:14 | 7.94110 | -72.46832 | 3193 ft | 202 kts | 164° |
| 2026-04-19 20:14 | 7.92798 | -72.46450 | 2965 ft | 188 kts | 164° |
| 2026-04-19 20:14 | 7.91581 | -72.46099 | 2732 ft | 169 kts | 165° |
| 2026-04-19 20:14 | 7.90516 | -72.45794 | 2540 ft | 150 kts | 166° |
| 2026-04-19 20:15 | 7.89862 | -72.45609 | 2358 ft | 145 kts | 166° |
| 2026-04-19 20:15 | 7.88511 | -72.45231 | 2326 ft | 164 kts | 162° |
| 2026-04-19 20:15 | 7.87431 | -72.44926 | 1992 ft | 157 kts | 163° |
| 2026-04-19 20:15 | 7.86397 | -72.44642 | 1668 ft | 152 kts | 162° |
| 2026-04-19 20:16 | 7.85397 | -72.44355 | 1388 ft | 146 kts | 163° |
| 2026-04-19 20:16 | 7.84451 | -72.44088 | 1247 ft | 134 kts | 163° |
| 2026-04-19 20:16 | 7.83754 | -72.43897 | 1288 ft | 73 kts | 165° |
| 2026-04-19 20:16 | 7.83495 | -72.43827 | 1302 ft | 6 kts | 189° |
| 2026-04-19 20:17 | 7.83484 | -72.43829 | 1303 ft | 2 kts | 190° |
| 2026-04-19 20:17 | 7.83477 | -72.43817 | 1303 ft | 6 kts | 66° |
| 2026-04-19 20:17 | 7.83587 | -72.43851 | 1296 ft | 36 kts | 345° |
| 2026-04-19 20:17 | 7.83821 | -72.43914 | 1290 ft | 26 kts | 344° |
| 2026-04-19 20:18 | 7.83887 | -72.43933 | 1282 ft | 0 kts | 344° |
| 2026-04-19 20:18 | 7.83901 | -72.43972 | 1279 ft | 3 kts | 253° |
| 2026-04-19 20:18 | 7.83896 | -72.43980 | 1279 ft | 3 kts | 243° |
| 2026-04-19 20:18 | 7.83894 | -72.43988 | 1279 ft | 0 kts | 253° |